sensor_id;sensor_type;location;lat;lon;timestamp;pressure;altitude;pressure_sealevel;temperature;humidity
37078;BME280;22989;55.998;37.212;2023-06-14T00:02:11;116983.66;;;-145.39;41.95
37078;BME280;22989;55.998;37.212;2023-06-14T00:04:36;116983.66;;;-145.39;42.06
37078;BME280;22989;55.998;37.212;2023-06-14T00:07:04;116983.66;;;-145.39;41.93
37078;BME280;22989;55.998;37.212;2023-06-14T00:09:29;116983.66;;;-145.39;42.06
37078;BME280;22989;55.998;37.212;2023-06-14T00:11:55;116983.66;;;-145.39;42.08
37078;BME280;22989;55.998;37.212;2023-06-14T00:14:20;116983.66;;;-145.39;42.29
37078;BME280;22989;55.998;37.212;2023-06-14T00:16:46;116983.66;;;-145.39;42.41
37078;BME280;22989;55.998;37.212;2023-06-14T00:19:11;116983.66;;;-145.39;42.59
37078;BME280;22989;55.998;37.212;2023-06-14T00:21:37;116983.66;;;-145.39;42.64
37078;BME280;22989;55.998;37.212;2023-06-14T00:24:03;116983.66;;;-145.39;42.73
37078;BME280;22989;55.998;37.212;2023-06-14T00:26:29;116983.66;;;-145.39;42.82
37078;BME280;22989;55.998;37.212;2023-06-14T00:28:54;116983.66;;;-145.39;42.87
37078;BME280;22989;55.998;37.212;2023-06-14T00:31:21;116983.66;;;-145.39;42.88
37078;BME280;22989;55.998;37.212;2023-06-14T00:33:47;116983.66;;;-145.39;42.79
37078;BME280;22989;55.998;37.212;2023-06-14T00:36:12;116983.66;;;-145.39;42.77
37078;BME280;22989;55.998;37.212;2023-06-14T00:38:38;116983.66;;;-145.39;42.73
37078;BME280;22989;55.998;37.212;2023-06-14T00:41:03;116983.66;;;-145.39;42.63
37078;BME280;22989;55.998;37.212;2023-06-14T00:43:29;116983.66;;;-145.39;42.71
37078;BME280;22989;55.998;37.212;2023-06-14T00:45:55;116983.66;;;-145.39;42.69
37078;BME280;22989;55.998;37.212;2023-06-14T00:48:21;116983.66;;;-145.39;42.53
37078;BME280;22989;55.998;37.212;2023-06-14T00:50:47;116983.66;;;-145.39;42.49
37078;BME280;22989;55.998;37.212;2023-06-14T00:53:15;116983.66;;;-145.39;42.38
37078;BME280;22989;55.998;37.212;2023-06-14T00:55:44;116983.66;;;-145.39;42.38
37078;BME280;22989;55.998;37.212;2023-06-14T00:58:10;116983.66;;;-145.39;42.38
37078;BME280;22989;55.998;37.212;2023-06-14T01:00:36;116983.66;;;-145.39;42.44
37078;BME280;22989;55.998;37.212;2023-06-14T01:03:01;116983.66;;;-145.39;42.45
37078;BME280;22989;55.998;37.212;2023-06-14T01:05:28;116983.66;;;-145.39;42.79
37078;BME280;22989;55.998;37.212;2023-06-14T01:12:59;116983.66;;;-145.39;42.79
37078;BME280;22989;55.998;37.212;2023-06-14T01:15:29;116983.66;;;-145.39;42.87
37078;BME280;22989;55.998;37.212;2023-06-14T01:17:55;116983.66;;;-145.39;42.78
37078;BME280;22989;55.998;37.212;2023-06-14T01:20:32;116983.66;;;-145.39;42.67
37078;BME280;22989;55.998;37.212;2023-06-14T01:23:03;116983.66;;;-145.39;42.31
37078;BME280;22989;55.998;37.212;2023-06-14T01:25:29;116983.66;;;-145.39;42.56
37078;BME280;22989;55.998;37.212;2023-06-14T01:27:55;116983.66;;;-145.39;42.67
37078;BME280;22989;55.998;37.212;2023-06-14T01:30:25;116983.66;;;-145.39;42.59
37078;BME280;22989;55.998;37.212;2023-06-14T01:32:51;116983.66;;;-145.39;42.65
37078;BME280;22989;55.998;37.212;2023-06-14T01:35:16;116983.66;;;-145.39;42.59
37078;BME280;22989;55.998;37.212;2023-06-14T01:37:42;116983.66;;;-145.39;42.65
37078;BME280;22989;55.998;37.212;2023-06-14T01:40:09;116983.66;;;-145.39;42.38
37078;BME280;22989;55.998;37.212;2023-06-14T01:42:36;116983.66;;;-145.39;42.39
37078;BME280;22989;55.998;37.212;2023-06-14T01:45:03;116983.66;;;-145.39;42.53
37078;BME280;22989;55.998;37.212;2023-06-14T01:47:30;116983.66;;;-145.39;42.69
37078;BME280;22989;55.998;37.212;2023-06-14T01:49:56;116983.66;;;-145.39;42.61
37078;BME280;22989;55.998;37.212;2023-06-14T01:52:21;116983.66;;;-145.39;42.59
37078;BME280;22989;55.998;37.212;2023-06-14T01:54:49;116983.66;;;-145.39;42.45
37078;BME280;22989;55.998;37.212;2023-06-14T01:57:15;116983.66;;;-145.39;42.52
37078;BME280;22989;55.998;37.212;2023-06-14T01:59:41;116983.66;;;-145.39;42.63
37078;BME280;22989;55.998;37.212;2023-06-14T02:02:07;116983.66;;;-145.39;42.45
37078;BME280;22989;55.998;37.212;2023-06-14T02:04:33;116983.66;;;-145.39;42.38
37078;BME280;22989;55.998;37.212;2023-06-14T02:06:59;116983.66;;;-145.39;42.15
37078;BME280;22989;55.998;37.212;2023-06-14T02:09:24;116983.66;;;-145.39;42.12
37078;BME280;22989;55.998;37.212;2023-06-14T02:11:53;116983.66;;;-145.39;42.35
37078;BME280;22989;55.998;37.212;2023-06-14T02:14:19;116983.66;;;-145.39;42.30
37078;BME280;22989;55.998;37.212;2023-06-14T02:16:44;116983.66;;;-145.39;42.19
37078;BME280;22989;55.998;37.212;2023-06-14T02:19:17;116983.66;;;-145.39;41.75
37078;BME280;22989;55.998;37.212;2023-06-14T02:21:43;116983.66;;;-145.39;41.89
37078;BME280;22989;55.998;37.212;2023-06-14T02:31:07;116983.66;;;-145.39;41.73
37078;BME280;22989;55.998;37.212;2023-06-14T02:33:33;116983.66;;;-145.39;41.61
37078;BME280;22989;55.998;37.212;2023-06-14T02:35:59;116983.66;;;-145.39;41.62
37078;BME280;22989;55.998;37.212;2023-06-14T02:38:25;116983.66;;;-145.39;41.65
37078;BME280;22989;55.998;37.212;2023-06-14T02:40:50;116983.66;;;-145.39;41.52
37078;BME280;22989;55.998;37.212;2023-06-14T02:43:16;116983.66;;;-145.39;41.33
37078;BME280;22989;55.998;37.212;2023-06-14T02:45:42;116983.66;;;-145.39;41.05
37078;BME280;22989;55.998;37.212;2023-06-14T02:48:08;116983.66;;;-145.39;41.01
37078;BME280;22989;55.998;37.212;2023-06-14T02:50:33;116983.66;;;-145.39;41.06
37078;BME280;22989;55.998;37.212;2023-06-14T02:52:59;116983.66;;;-145.39;40.89
37078;BME280;22989;55.998;37.212;2023-06-14T02:55:25;116983.66;;;-145.39;41.07
37078;BME280;22989;55.998;37.212;2023-06-14T02:57:51;116983.66;;;-145.39;41.06
37078;BME280;22989;55.998;37.212;2023-06-14T03:00:19;116983.66;;;-145.39;41.28
37078;BME280;22989;55.998;37.212;2023-06-14T03:02:46;116983.66;;;-145.39;41.10
37078;BME280;22989;55.998;37.212;2023-06-14T03:05:12;116983.66;;;-145.39;41.06
37078;BME280;22989;55.998;37.212;2023-06-14T03:07:38;116983.66;;;-145.39;41.14
37078;BME280;22989;55.998;37.212;2023-06-14T03:10:10;116983.66;;;-145.39;40.90
37078;BME280;22989;55.998;37.212;2023-06-14T03:12:40;116983.66;;;-145.39;40.66
37078;BME280;22989;55.998;37.212;2023-06-14T03:15:07;116983.66;;;-145.39;40.35
37078;BME280;22989;55.998;37.212;2023-06-14T03:17:38;116983.66;;;-145.39;40.22
37078;BME280;22989;55.998;37.212;2023-06-14T03:20:05;116983.66;;;-145.39;40.14
37078;BME280;22989;55.998;37.212;2023-06-14T03:22:31;116983.66;;;-145.39;40.17
37078;BME280;22989;55.998;37.212;2023-06-14T03:24:59;116983.66;;;-145.39;40.00
37078;BME280;22989;55.998;37.212;2023-06-14T03:27:26;116983.66;;;-145.39;40.08
37078;BME280;22989;55.998;37.212;2023-06-14T03:29:54;116983.66;;;-145.39;39.85
37078;BME280;22989;55.998;37.212;2023-06-14T03:32:20;116983.66;;;-145.39;39.79
37078;BME280;22989;55.998;37.212;2023-06-14T03:34:46;116983.66;;;-145.39;39.73
37078;BME280;22989;55.998;37.212;2023-06-14T03:37:18;116983.66;;;-145.39;39.71
37078;BME280;22989;55.998;37.212;2023-06-14T03:39:46;116983.66;;;-145.39;36.43
37078;BME280;22989;55.998;37.212;2023-06-14T03:42:16;116983.66;;;-145.39;33.15
37078;BME280;22989;55.998;37.212;2023-06-14T03:44:43;116983.66;;;-145.39;31.35
37078;BME280;22989;55.998;37.212;2023-06-14T03:47:09;116983.66;;;-145.39;29.66
37078;BME280;22989;55.998;37.212;2023-06-14T03:49:35;116983.66;;;-145.39;30.36
37078;BME280;22989;55.998;37.212;2023-06-14T03:52:02;116983.66;;;-145.39;26.78
37078;BME280;22989;55.998;37.212;2023-06-14T03:54:30;116983.66;;;-145.39;26.92
37078;BME280;22989;55.998;37.212;2023-06-14T03:56:58;116983.66;;;-145.39;25.45
37078;BME280;22989;55.998;37.212;2023-06-14T03:59:24;116983.66;;;-145.39;25.87
37078;BME280;22989;55.998;37.212;2023-06-14T04:01:51;116983.66;;;-145.39;24.99
37078;BME280;22989;55.998;37.212;2023-06-14T04:04:18;116983.66;;;-145.39;24.27
37078;BME280;22989;55.998;37.212;2023-06-14T04:06:44;116983.66;;;-145.39;24.54
37078;BME280;22989;55.998;37.212;2023-06-14T04:09:10;116983.66;;;-145.39;24.70
37078;BME280;22989;55.998;37.212;2023-06-14T04:11:36;116983.66;;;-145.39;24.72
37078;BME280;22989;55.998;37.212;2023-06-14T04:14:02;116983.66;;;-145.39;24.45
37078;BME280;22989;55.998;37.212;2023-06-14T04:16:28;116983.66;;;-145.39;23.96
37078;BME280;22989;55.998;37.212;2023-06-14T04:18:54;116983.66;;;-145.39;23.92
37078;BME280;22989;55.998;37.212;2023-06-14T04:21:21;116983.66;;;-145.39;24.00
37078;BME280;22989;55.998;37.212;2023-06-14T04:23:50;116983.66;;;-145.39;23.58
37078;BME280;22989;55.998;37.212;2023-06-14T04:26:22;116983.66;;;-145.39;23.96
37078;BME280;22989;55.998;37.212;2023-06-14T04:28:50;116983.66;;;-145.39;23.70
37078;BME280;22989;55.998;37.212;2023-06-14T04:31:17;116983.66;;;-145.39;23.84
37078;BME280;22989;55.998;37.212;2023-06-14T04:33:44;116983.66;;;-145.39;23.31
37078;BME280;22989;55.998;37.212;2023-06-14T04:36:15;116983.66;;;-145.39;22.94
37078;BME280;22989;55.998;37.212;2023-06-14T04:38:45;116983.66;;;-145.39;21.62
37078;BME280;22989;55.998;37.212;2023-06-14T04:41:12;116983.66;;;-145.39;22.14
37078;BME280;22989;55.998;37.212;2023-06-14T04:43:37;116983.66;;;-145.39;22.78
37078;BME280;22989;55.998;37.212;2023-06-14T04:46:05;116983.66;;;-145.39;22.53
37078;BME280;22989;55.998;37.212;2023-06-14T04:48:37;116983.66;;;-145.39;22.79
37078;BME280;22989;55.998;37.212;2023-06-14T04:51:03;116983.66;;;-145.39;22.37
37078;BME280;22989;55.998;37.212;2023-06-14T04:53:29;116983.66;;;-145.39;22.36
37078;BME280;22989;55.998;37.212;2023-06-14T04:55:55;116983.66;;;-145.39;22.00
37078;BME280;22989;55.998;37.212;2023-06-14T04:58:21;116983.66;;;-145.39;22.31
37078;BME280;22989;55.998;37.212;2023-06-14T05:00:46;116983.66;;;-145.39;21.92
37078;BME280;22989;55.998;37.212;2023-06-14T05:03:13;116983.66;;;-145.39;21.47
37078;BME280;22989;55.998;37.212;2023-06-14T05:05:40;116983.66;;;-145.39;21.37
37078;BME280;22989;55.998;37.212;2023-06-14T05:08:06;116983.66;;;-145.39;21.74
37078;BME280;22989;55.998;37.212;2023-06-14T05:10:31;116983.66;;;-145.39;21.93
37078;BME280;22989;55.998;37.212;2023-06-14T05:12:57;116983.66;;;-145.39;22.04
37078;BME280;22989;55.998;37.212;2023-06-14T05:15:23;116983.66;;;-145.39;21.83
37078;BME280;22989;55.998;37.212;2023-06-14T05:17:50;116983.66;;;-145.39;21.96
37078;BME280;22989;55.998;37.212;2023-06-14T05:20:23;116983.66;;;-145.39;22.25
37078;BME280;22989;55.998;37.212;2023-06-14T05:22:52;116983.66;;;-145.39;21.21
37078;BME280;22989;55.998;37.212;2023-06-14T05:25:19;116983.66;;;-145.39;21.35
37078;BME280;22989;55.998;37.212;2023-06-14T05:27:45;116983.66;;;-145.39;21.00
37078;BME280;22989;55.998;37.212;2023-06-14T05:30:11;116983.66;;;-145.39;20.83
37078;BME280;22989;55.998;37.212;2023-06-14T05:32:36;116983.66;;;-145.39;20.85
37078;BME280;22989;55.998;37.212;2023-06-14T05:35:02;116983.66;;;-145.39;20.48
37078;BME280;22989;55.998;37.212;2023-06-14T05:37:27;116983.66;;;-145.39;20.11
37078;BME280;22989;55.998;37.212;2023-06-14T05:39:53;116983.66;;;-145.39;20.65
37078;BME280;22989;55.998;37.212;2023-06-14T05:42:18;116983.66;;;-145.39;19.55
37078;BME280;22989;55.998;37.212;2023-06-14T05:44:44;116983.66;;;-145.39;19.85
37078;BME280;22989;55.998;37.212;2023-06-14T05:47:09;116983.66;;;-145.39;19.94
37078;BME280;22989;55.998;37.212;2023-06-14T05:49:35;116983.66;;;-145.39;20.62
37078;BME280;22989;55.998;37.212;2023-06-14T05:52:00;116983.66;;;-145.39;20.67
37078;BME280;22989;55.998;37.212;2023-06-14T05:54:26;116983.66;;;-145.39;20.98
37078;BME280;22989;55.998;37.212;2023-06-14T05:56:51;116983.66;;;-145.39;20.32
37078;BME280;22989;55.998;37.212;2023-06-14T05:59:16;116983.66;;;-145.39;19.73
37078;BME280;22989;55.998;37.212;2023-06-14T06:01:42;116983.66;;;-145.39;20.36
37078;BME280;22989;55.998;37.212;2023-06-14T06:04:07;116983.66;;;-145.39;20.58
37078;BME280;22989;55.998;37.212;2023-06-14T06:06:33;116983.66;;;-145.39;20.49
37078;BME280;22989;55.998;37.212;2023-06-14T06:08:58;116983.66;;;-145.39;20.61
37078;BME280;22989;55.998;37.212;2023-06-14T06:11:24;116983.66;;;-145.39;20.84
37078;BME280;22989;55.998;37.212;2023-06-14T06:13:50;116983.66;;;-145.39;20.20
37078;BME280;22989;55.998;37.212;2023-06-14T06:16:15;116983.66;;;-145.39;19.97
37078;BME280;22989;55.998;37.212;2023-06-14T06:18:41;116983.66;;;-145.39;20.44
37078;BME280;22989;55.998;37.212;2023-06-14T06:21:06;116983.66;;;-145.39;19.74
37078;BME280;22989;55.998;37.212;2023-06-14T06:23:32;116983.66;;;-145.39;19.79
37078;BME280;22989;55.998;37.212;2023-06-14T06:25:57;116983.66;;;-145.39;20.14
37078;BME280;22989;55.998;37.212;2023-06-14T06:28:23;116983.66;;;-145.39;20.12
37078;BME280;22989;55.998;37.212;2023-06-14T06:30:48;116983.66;;;-145.39;19.38
37078;BME280;22989;55.998;37.212;2023-06-14T06:33:14;116983.66;;;-145.39;19.73
37078;BME280;22989;55.998;37.212;2023-06-14T06:35:39;116983.66;;;-145.39;19.28
37078;BME280;22989;55.998;37.212;2023-06-14T06:38:05;116983.66;;;-145.39;19.26
37078;BME280;22989;55.998;37.212;2023-06-14T06:40:30;116983.66;;;-145.39;19.00
37078;BME280;22989;55.998;37.212;2023-06-14T06:42:56;116983.66;;;-145.39;19.48
37078;BME280;22989;55.998;37.212;2023-06-14T06:45:25;116983.66;;;-145.39;19.87
37078;BME280;22989;55.998;37.212;2023-06-14T06:47:51;116983.66;;;-145.39;19.89
37078;BME280;22989;55.998;37.212;2023-06-14T06:50:17;116983.66;;;-145.39;20.47
37078;BME280;22989;55.998;37.212;2023-06-14T06:52:43;116983.66;;;-145.39;20.29
37078;BME280;22989;55.998;37.212;2023-06-14T06:55:10;116983.66;;;-145.39;20.37
37078;BME280;22989;55.998;37.212;2023-06-14T06:57:36;116983.66;;;-145.39;20.21
37078;BME280;22989;55.998;37.212;2023-06-14T07:00:02;116983.66;;;-145.39;20.10
37078;BME280;22989;55.998;37.212;2023-06-14T07:02:30;116983.66;;;-145.39;19.98
37078;BME280;22989;55.998;37.212;2023-06-14T07:04:56;116983.66;;;-145.39;20.08
37078;BME280;22989;55.998;37.212;2023-06-14T07:07:21;116983.66;;;-145.39;19.96
37078;BME280;22989;55.998;37.212;2023-06-14T07:09:47;116983.66;;;-145.39;20.43
37078;BME280;22989;55.998;37.212;2023-06-14T07:12:12;116983.66;;;-145.39;19.98
37078;BME280;22989;55.998;37.212;2023-06-14T07:14:38;116983.66;;;-145.39;20.00
37078;BME280;22989;55.998;37.212;2023-06-14T07:17:03;116983.66;;;-145.39;19.90
37078;BME280;22989;55.998;37.212;2023-06-14T07:19:29;116983.66;;;-145.39;19.60
37078;BME280;22989;55.998;37.212;2023-06-14T07:21:55;116983.66;;;-145.39;19.82
37078;BME280;22989;55.998;37.212;2023-06-14T07:24:21;116983.66;;;-145.39;20.16
37078;BME280;22989;55.998;37.212;2023-06-14T07:26:47;116983.66;;;-145.39;20.31
37078;BME280;22989;55.998;37.212;2023-06-14T07:29:14;116983.66;;;-145.39;19.73
37078;BME280;22989;55.998;37.212;2023-06-14T07:31:39;116983.66;;;-145.39;20.08
37078;BME280;22989;55.998;37.212;2023-06-14T07:34:05;116983.66;;;-145.39;20.68
37078;BME280;22989;55.998;37.212;2023-06-14T07:36:30;116983.66;;;-145.39;19.53
37078;BME280;22989;55.998;37.212;2023-06-14T07:38:56;116983.66;;;-145.39;19.80
37078;BME280;22989;55.998;37.212;2023-06-14T07:41:21;116983.66;;;-145.39;19.70
37078;BME280;22989;55.998;37.212;2023-06-14T07:43:47;116983.66;;;-145.39;19.89
37078;BME280;22989;55.998;37.212;2023-06-14T07:46:12;116983.66;;;-145.39;19.75
37078;BME280;22989;55.998;37.212;2023-06-14T07:48:38;116983.66;;;-145.39;19.34
37078;BME280;22989;55.998;37.212;2023-06-14T07:51:03;116983.66;;;-145.39;19.35
37078;BME280;22989;55.998;37.212;2023-06-14T07:53:29;116983.66;;;-145.39;19.83
37078;BME280;22989;55.998;37.212;2023-06-14T07:55:56;116983.66;;;-145.39;20.01
37078;BME280;22989;55.998;37.212;2023-06-14T07:58:21;116983.66;;;-145.39;20.48
37078;BME280;22989;55.998;37.212;2023-06-14T08:00:47;116983.66;;;-145.39;20.79
37078;BME280;22989;55.998;37.212;2023-06-14T08:03:12;116983.66;;;-145.39;20.92
37078;BME280;22989;55.998;37.212;2023-06-14T08:05:38;116983.66;;;-145.39;21.66
37078;BME280;22989;55.998;37.212;2023-06-14T08:08:03;116983.66;;;-145.39;22.18
37078;BME280;22989;55.998;37.212;2023-06-14T08:10:29;116983.66;;;-145.39;22.57
37078;BME280;22989;55.998;37.212;2023-06-14T08:12:54;116983.66;;;-145.39;22.82
37078;BME280;22989;55.998;37.212;2023-06-14T08:15:20;116983.66;;;-145.39;23.31
37078;BME280;22989;55.998;37.212;2023-06-14T08:17:45;116983.66;;;-145.39;23.11
37078;BME280;22989;55.998;37.212;2023-06-14T08:20:11;116983.66;;;-145.39;23.46
37078;BME280;22989;55.998;37.212;2023-06-14T08:22:37;116983.66;;;-145.39;24.74
37078;BME280;22989;55.998;37.212;2023-06-14T08:25:03;116983.66;;;-145.39;24.98
37078;BME280;22989;55.998;37.212;2023-06-14T08:27:29;116983.66;;;-145.39;25.47
37078;BME280;22989;55.998;37.212;2023-06-14T08:29:55;116983.66;;;-145.39;25.59
37078;BME280;22989;55.998;37.212;2023-06-14T08:32:21;116983.66;;;-145.39;25.92
37078;BME280;22989;55.998;37.212;2023-06-14T08:34:46;116983.66;;;-145.39;26.19
37078;BME280;22989;55.998;37.212;2023-06-14T08:37:12;116983.66;;;-145.39;25.97
37078;BME280;22989;55.998;37.212;2023-06-14T08:39:37;116983.66;;;-145.39;25.92
37078;BME280;22989;55.998;37.212;2023-06-14T08:42:03;116983.66;;;-145.39;25.55
37078;BME280;22989;55.998;37.212;2023-06-14T08:44:29;116983.66;;;-145.39;25.40
37078;BME280;22989;55.998;37.212;2023-06-14T08:46:58;116983.66;;;-145.39;25.10
37078;BME280;22989;55.998;37.212;2023-06-14T08:49:24;116983.66;;;-145.39;25.25
37078;BME280;22989;55.998;37.212;2023-06-14T08:51:52;116983.66;;;-145.39;25.39
37078;BME280;22989;55.998;37.212;2023-06-14T08:54:19;116983.66;;;-145.39;25.63
37078;BME280;22989;55.998;37.212;2023-06-14T08:56:46;116983.66;;;-145.39;25.57
37078;BME280;22989;55.998;37.212;2023-06-14T08:59:13;116983.66;;;-145.39;25.92
37078;BME280;22989;55.998;37.212;2023-06-14T09:01:39;116983.66;;;-145.39;26.05
37078;BME280;22989;55.998;37.212;2023-06-14T09:04:05;116983.66;;;-145.39;25.94
37078;BME280;22989;55.998;37.212;2023-06-14T09:06:31;116983.66;;;-145.39;25.78
37078;BME280;22989;55.998;37.212;2023-06-14T09:08:56;116983.66;;;-145.39;25.71
37078;BME280;22989;55.998;37.212;2023-06-14T09:11:23;116983.66;;;-145.39;25.64
37078;BME280;22989;55.998;37.212;2023-06-14T09:13:49;116983.66;;;-145.39;25.59
37078;BME280;22989;55.998;37.212;2023-06-14T09:16:14;116983.66;;;-145.39;25.56
37078;BME280;22989;55.998;37.212;2023-06-14T09:18:41;116983.66;;;-145.39;25.68
37078;BME280;22989;55.998;37.212;2023-06-14T09:21:08;116983.66;;;-145.39;25.80
37078;BME280;22989;55.998;37.212;2023-06-14T09:23:37;116983.66;;;-145.39;25.90
37078;BME280;22989;55.998;37.212;2023-06-14T09:26:10;116983.66;;;-145.39;25.80
37078;BME280;22989;55.998;37.212;2023-06-14T09:28:36;116983.66;;;-145.39;25.73
37078;BME280;22989;55.998;37.212;2023-06-14T09:31:06;116983.66;;;-145.39;25.65
37078;BME280;22989;55.998;37.212;2023-06-14T09:33:34;116983.66;;;-145.39;25.81
37078;BME280;22989;55.998;37.212;2023-06-14T09:35:59;116983.66;;;-145.39;26.06
37078;BME280;22989;55.998;37.212;2023-06-14T09:38:25;116983.66;;;-145.39;26.04
37078;BME280;22989;55.998;37.212;2023-06-14T09:40:51;116983.66;;;-145.39;26.04
37078;BME280;22989;55.998;37.212;2023-06-14T09:43:16;116983.66;;;-145.39;25.95
37078;BME280;22989;55.998;37.212;2023-06-14T09:45:43;116983.66;;;-145.39;25.95
37078;BME280;22989;55.998;37.212;2023-06-14T09:48:11;116983.66;;;-145.39;26.14
37078;BME280;22989;55.998;37.212;2023-06-14T09:50:36;116983.66;;;-145.39;26.37
37078;BME280;22989;55.998;37.212;2023-06-14T09:53:10;116983.66;;;-145.39;26.33
37078;BME280;22989;55.998;37.212;2023-06-14T09:55:36;116983.66;;;-145.39;26.30
37078;BME280;22989;55.998;37.212;2023-06-14T09:58:04;116983.66;;;-145.39;26.38
37078;BME280;22989;55.998;37.212;2023-06-14T10:00:30;116983.66;;;-145.39;26.40
37078;BME280;22989;55.998;37.212;2023-06-14T10:03:00;116983.66;;;-145.39;26.41
37078;BME280;22989;55.998;37.212;2023-06-14T10:05:26;116983.66;;;-145.39;26.57
37078;BME280;22989;55.998;37.212;2023-06-14T10:07:59;116983.66;;;-145.39;26.57
37078;BME280;22989;55.998;37.212;2023-06-14T10:10:25;116983.66;;;-145.39;26.41
37078;BME280;22989;55.998;37.212;2023-06-14T10:12:50;116983.66;;;-145.39;26.31
37078;BME280;22989;55.998;37.212;2023-06-14T10:15:19;116983.66;;;-145.39;26.75
37078;BME280;22989;55.998;37.212;2023-06-14T10:17:50;116983.66;;;-145.39;26.63
37078;BME280;22989;55.998;37.212;2023-06-14T10:23:08;116983.66;;;-145.39;26.70
37078;BME280;22989;55.998;37.212;2023-06-14T10:25:34;116983.66;;;-145.39;26.54
37078;BME280;22989;55.998;37.212;2023-06-14T10:33:26;116983.66;;;-145.39;26.20
37078;BME280;22989;55.998;37.212;2023-06-14T10:36:06;116983.66;;;-145.39;26.25
37078;BME280;22989;55.998;37.212;2023-06-14T10:38:31;116983.66;;;-145.39;26.46
37078;BME280;22989;55.998;37.212;2023-06-14T10:40:58;116983.66;;;-145.39;26.12
37078;BME280;22989;55.998;37.212;2023-06-14T10:43:24;116983.66;;;-145.39;26.38
37078;BME280;22989;55.998;37.212;2023-06-14T10:48:33;116983.66;;;-145.39;26.33
37078;BME280;22989;55.998;37.212;2023-06-14T10:51:00;116983.66;;;-145.39;26.26
37078;BME280;22989;55.998;37.212;2023-06-14T10:53:27;116983.66;;;-145.39;26.33
37078;BME280;22989;55.998;37.212;2023-06-14T10:55:52;116983.66;;;-145.39;26.08
37078;BME280;22989;55.998;37.212;2023-06-14T10:58:18;116983.66;;;-145.39;26.02
37078;BME280;22989;55.998;37.212;2023-06-14T11:00:43;116983.66;;;-145.39;26.13
37078;BME280;22989;55.998;37.212;2023-06-14T11:03:23;116983.66;;;-145.39;26.01
37078;BME280;22989;55.998;37.212;2023-06-14T11:05:56;116983.66;;;-145.39;26.08
37078;BME280;22989;55.998;37.212;2023-06-14T11:11:09;116983.66;;;-145.39;26.30
37078;BME280;22989;55.998;37.212;2023-06-14T11:13:38;116983.66;;;-145.39;26.30
37078;BME280;22989;55.998;37.212;2023-06-14T11:16:10;116983.66;;;-145.39;26.36
37078;BME280;22989;55.998;37.212;2023-06-14T11:18:35;116983.66;;;-145.39;26.29
37078;BME280;22989;55.998;37.212;2023-06-14T11:21:01;116983.66;;;-145.39;26.37
37078;BME280;22989;55.998;37.212;2023-06-14T11:23:27;116983.66;;;-145.39;26.15
37078;BME280;22989;55.998;37.212;2023-06-14T11:25:53;116983.66;;;-145.39;26.15
37078;BME280;22989;55.998;37.212;2023-06-14T11:28:18;116983.66;;;-145.39;26.11
37078;BME280;22989;55.998;37.212;2023-06-14T11:31:01;116983.66;;;-145.39;26.19
37078;BME280;22989;55.998;37.212;2023-06-14T11:33:27;116983.66;;;-145.39;26.13
37078;BME280;22989;55.998;37.212;2023-06-14T11:35:52;116983.66;;;-145.39;26.08
37078;BME280;22989;55.998;37.212;2023-06-14T11:38:18;116983.66;;;-145.39;26.00
37078;BME280;22989;55.998;37.212;2023-06-14T11:40:43;116983.66;;;-145.39;25.94
37078;BME280;22989;55.998;37.212;2023-06-14T11:43:08;116983.66;;;-145.39;25.95
37078;BME280;22989;55.998;37.212;2023-06-14T11:45:34;116983.66;;;-145.39;25.95
37078;BME280;22989;55.998;37.212;2023-06-14T11:48:00;116983.66;;;-145.39;25.82
37078;BME280;22989;55.998;37.212;2023-06-14T11:50:26;116983.66;;;-145.39;25.80
37078;BME280;22989;55.998;37.212;2023-06-14T11:52:55;116983.66;;;-145.39;25.75
37078;BME280;22989;55.998;37.212;2023-06-14T11:55:21;116983.66;;;-145.39;25.80
37078;BME280;22989;55.998;37.212;2023-06-14T11:57:47;116983.66;;;-145.39;25.54
37078;BME280;22989;55.998;37.212;2023-06-14T12:00:13;116983.66;;;-145.39;25.53
37078;BME280;22989;55.998;37.212;2023-06-14T12:02:40;116983.66;;;-145.39;25.59
37078;BME280;22989;55.998;37.212;2023-06-14T12:05:06;116983.66;;;-145.39;25.44
37078;BME280;22989;55.998;37.212;2023-06-14T12:07:37;116983.66;;;-145.39;25.42
37078;BME280;22989;55.998;37.212;2023-06-14T12:10:06;116983.66;;;-145.39;25.48
37078;BME280;22989;55.998;37.212;2023-06-14T12:12:37;116983.66;;;-145.39;25.59
37078;BME280;22989;55.998;37.212;2023-06-14T12:15:03;116983.66;;;-145.39;25.38
37078;BME280;22989;55.998;37.212;2023-06-14T12:17:33;116983.66;;;-145.39;25.09
37078;BME280;22989;55.998;37.212;2023-06-14T12:20:04;116983.66;;;-145.39;25.27
37078;BME280;22989;55.998;37.212;2023-06-14T12:22:31;116983.66;;;-145.39;25.24
37078;BME280;22989;55.998;37.212;2023-06-14T12:24:56;116983.66;;;-145.39;25.42
37078;BME280;22989;55.998;37.212;2023-06-14T12:27:22;116983.66;;;-145.39;25.42
37078;BME280;22989;55.998;37.212;2023-06-14T12:29:58;116983.66;;;-145.39;25.37
37078;BME280;22989;55.998;37.212;2023-06-14T12:32:23;116983.66;;;-145.39;25.33
37078;BME280;22989;55.998;37.212;2023-06-14T12:34:49;116983.66;;;-145.39;24.74
37078;BME280;22989;55.998;37.212;2023-06-14T12:37:14;116983.66;;;-145.39;24.93
37078;BME280;22989;55.998;37.212;2023-06-14T12:39:40;116983.66;;;-145.39;25.04
37078;BME280;22989;55.998;37.212;2023-06-14T12:42:05;116983.66;;;-145.39;25.14
37078;BME280;22989;55.998;37.212;2023-06-14T12:44:31;116983.66;;;-145.39;25.04